sensor_id;sensor_type;location;lat;lon;timestamp;P1;durP1;ratioP1;P2;durP2;ratioP2
14268;SDS011;7218;51.480;7.006;2023-04-24T00:00:25;1.25;;;0.75;;
14268;SDS011;7218;51.480;7.006;2023-04-24T00:02:52;0.80;;;0.68;;
14268;SDS011;7218;51.480;7.006;2023-04-24T00:05:22;2.97;;;0.65;;
14268;SDS011;7218;51.480;7.006;2023-04-24T00:07:48;1.83;;;1.00;;
14268;SDS011;7218;51.480;7.006;2023-04-24T00:10:17;1.00;;;0.73;;
14268;SDS011;7218;51.480;7.006;2023-04-24T00:12:44;2.10;;;0.85;;
14268;SDS011;7218;51.480;7.006;2023-04-24T00:15:12;1.23;;;0.98;;
14268;SDS011;7218;51.480;7.006;2023-04-24T00:17:39;0.88;;;0.85;;
14268;SDS011;7218;51.480;7.006;2023-04-24T00:20:05;2.42;;;1.00;;
14268;SDS011;7218;51.480;7.006;2023-04-24T00:22:33;2.15;;;1.10;;
14268;SDS011;7218;51.480;7.006;2023-04-24T00:25:00;2.03;;;1.05;;
14268;SDS011;7218;51.480;7.006;2023-04-24T00:27:26;1.45;;;1.10;;
14268;SDS011;7218;51.480;7.006;2023-04-24T00:29:53;1.15;;;1.00;;
14268;SDS011;7218;51.480;7.006;2023-04-24T00:32:21;1.58;;;1.20;;
14268;SDS011;7218;51.480;7.006;2023-04-24T00:34:47;1.30;;;1.10;;
14268;SDS011;7218;51.480;7.006;2023-04-24T00:37:14;1.40;;;1.05;;
14268;SDS011;7218;51.480;7.006;2023-04-24T00:39:40;1.10;;;1.00;;
14268;SDS011;7218;51.480;7.006;2023-04-24T00:42:07;1.55;;;1.10;;
14268;SDS011;7218;51.480;7.006;2023-04-24T00:44:34;1.52;;;1.42;;
14268;SDS011;7218;51.480;7.006;2023-04-24T00:47:01;1.92;;;1.13;;
14268;SDS011;7218;51.480;7.006;2023-04-24T00:49:29;2.08;;;1.17;;
14268;SDS011;7218;51.480;7.006;2023-04-24T00:51:55;2.13;;;1.17;;
14268;SDS011;7218;51.480;7.006;2023-04-24T00:54:24;1.30;;;1.20;;
14268;SDS011;7218;51.480;7.006;2023-04-24T00:56:51;1.85;;;1.35;;
14268;SDS011;7218;51.480;7.006;2023-04-24T00:59:17;1.70;;;1.48;;
14268;SDS011;7218;51.480;7.006;2023-04-24T01:01:44;1.50;;;1.20;;
14268;SDS011;7218;51.480;7.006;2023-04-24T01:04:11;2.97;;;1.35;;
14268;SDS011;7218;51.480;7.006;2023-04-24T01:06:40;1.92;;;1.40;;
14268;SDS011;7218;51.480;7.006;2023-04-24T01:09:07;1.38;;;1.27;;
14268;SDS011;7218;51.480;7.006;2023-04-24T01:11:34;1.90;;;1.52;;
14268;SDS011;7218;51.480;7.006;2023-04-24T01:14:01;1.88;;;1.52;;
14268;SDS011;7218;51.480;7.006;2023-04-24T01:16:27;2.80;;;1.65;;
14268;SDS011;7218;51.480;7.006;2023-04-24T01:18:54;2.97;;;1.90;;
14268;SDS011;7218;51.480;7.006;2023-04-24T01:21:21;2.40;;;1.80;;
14268;SDS011;7218;51.480;7.006;2023-04-24T01:23:50;2.20;;;2.00;;
14268;SDS011;7218;51.480;7.006;2023-04-24T01:26:17;3.45;;;2.30;;
14268;SDS011;7218;51.480;7.006;2023-04-24T01:28:45;2.88;;;2.47;;
14268;SDS011;7218;51.480;7.006;2023-04-24T01:31:12;5.00;;;2.70;;
14268;SDS011;7218;51.480;7.006;2023-04-24T01:33:38;6.28;;;2.20;;
14268;SDS011;7218;51.480;7.006;2023-04-24T01:36:05;4.13;;;2.45;;
14268;SDS011;7218;51.480;7.006;2023-04-24T01:38:33;2.88;;;2.28;;
14268;SDS011;7218;51.480;7.006;2023-04-24T01:41:01;2.45;;;2.15;;
14268;SDS011;7218;51.480;7.006;2023-04-24T01:43:28;3.38;;;2.15;;
14268;SDS011;7218;51.480;7.006;2023-04-24T01:45:55;2.38;;;2.03;;
14268;SDS011;7218;51.480;7.006;2023-04-24T01:48:21;2.78;;;2.38;;
14268;SDS011;7218;51.480;7.006;2023-04-24T01:50:48;4.38;;;2.50;;
14268;SDS011;7218;51.480;7.006;2023-04-24T01:53:15;6.05;;;2.90;;
14268;SDS011;7218;51.480;7.006;2023-04-24T01:55:41;3.45;;;3.15;;
14268;SDS011;7218;51.480;7.006;2023-04-24T01:58:09;6.13;;;3.17;;
14268;SDS011;7218;51.480;7.006;2023-04-24T02:00:36;3.92;;;3.17;;
14268;SDS011;7218;51.480;7.006;2023-04-24T02:03:02;4.85;;;3.10;;
14268;SDS011;7218;51.480;7.006;2023-04-24T02:05:29;4.30;;;3.10;;
14268;SDS011;7218;51.480;7.006;2023-04-24T02:07:56;4.35;;;3.33;;
14268;SDS011;7218;51.480;7.006;2023-04-24T02:10:22;4.80;;;3.40;;
14268;SDS011;7218;51.480;7.006;2023-04-24T02:12:50;5.30;;;3.47;;
14268;SDS011;7218;51.480;7.006;2023-04-24T02:15:18;6.25;;;3.60;;
14268;SDS011;7218;51.480;7.006;2023-04-24T02:17:44;5.57;;;3.83;;
14268;SDS011;7218;51.480;7.006;2023-04-24T02:20:11;5.15;;;3.83;;
14268;SDS011;7218;51.480;7.006;2023-04-24T02:22:37;6.50;;;3.92;;
14268;SDS011;7218;51.480;7.006;2023-04-24T02:25:04;6.65;;;4.40;;
14268;SDS011;7218;51.480;7.006;2023-04-24T02:27:31;4.95;;;4.18;;
14268;SDS011;7218;51.480;7.006;2023-04-24T02:29:58;5.82;;;4.57;;
14268;SDS011;7218;51.480;7.006;2023-04-24T02:32:25;7.50;;;4.93;;
14268;SDS011;7218;51.480;7.006;2023-04-24T02:34:52;6.88;;;5.03;;
14268;SDS011;7218;51.480;7.006;2023-04-24T02:37:18;10.48;;;5.82;;
14268;SDS011;7218;51.480;7.006;2023-04-24T02:39:45;7.30;;;5.40;;
14268;SDS011;7218;51.480;7.006;2023-04-24T02:42:11;7.40;;;5.30;;
14268;SDS011;7218;51.480;7.006;2023-04-24T02:44:38;9.73;;;5.95;;
14268;SDS011;7218;51.480;7.006;2023-04-24T02:47:04;7.95;;;5.82;;
14268;SDS011;7218;51.480;7.006;2023-04-24T02:49:32;7.90;;;6.05;;
14268;SDS011;7218;51.480;7.006;2023-04-24T02:51:59;8.20;;;5.97;;
14268;SDS011;7218;51.480;7.006;2023-04-24T02:54:25;9.07;;;6.03;;
14268;SDS011;7218;51.480;7.006;2023-04-24T02:56:51;10.27;;;6.50;;
14268;SDS011;7218;51.480;7.006;2023-04-24T02:59:18;10.18;;;7.13;;
14268;SDS011;7218;51.480;7.006;2023-04-24T03:01:45;12.98;;;6.45;;
14268;SDS011;7218;51.480;7.006;2023-04-24T03:04:11;11.10;;;7.50;;
14268;SDS011;7218;51.480;7.006;2023-04-24T03:06:39;11.82;;;7.20;;
14268;SDS011;7218;51.480;7.006;2023-04-24T03:09:05;12.23;;;7.38;;
14268;SDS011;7218;51.480;7.006;2023-04-24T03:11:32;9.35;;;6.55;;
14268;SDS011;7218;51.480;7.006;2023-04-24T03:13:58;9.55;;;7.18;;
14268;SDS011;7218;51.480;7.006;2023-04-24T03:16:25;11.98;;;7.40;;
14268;SDS011;7218;51.480;7.006;2023-04-24T03:18:51;13.23;;;8.32;;
14268;SDS011;7218;51.480;7.006;2023-04-24T03:21:18;11.10;;;7.88;;
14268;SDS011;7218;51.480;7.006;2023-04-24T03:23:46;13.30;;;7.88;;
14268;SDS011;7218;51.480;7.006;2023-04-24T03:26:13;11.57;;;8.23;;
14268;SDS011;7218;51.480;7.006;2023-04-24T03:28:39;9.65;;;7.75;;
14268;SDS011;7218;51.480;7.006;2023-04-24T03:31:05;11.35;;;7.95;;
14268;SDS011;7218;51.480;7.006;2023-04-24T03:33:32;12.32;;;8.95;;
14268;SDS011;7218;51.480;7.006;2023-04-24T03:35:58;12.98;;;8.60;;
14268;SDS011;7218;51.480;7.006;2023-04-24T03:38:25;14.23;;;8.48;;
14268;SDS011;7218;51.480;7.006;2023-04-24T03:40:53;11.73;;;8.80;;
14268;SDS011;7218;51.480;7.006;2023-04-24T03:43:19;10.38;;;8.05;;
14268;SDS011;7218;51.480;7.006;2023-04-24T03:45:46;15.07;;;8.90;;
14268;SDS011;7218;51.480;7.006;2023-04-24T03:48:12;15.88;;;8.90;;
14268;SDS011;7218;51.480;7.006;2023-04-24T03:50:39;13.43;;;8.45;;
14268;SDS011;7218;51.480;7.006;2023-04-24T03:53:05;10.43;;;8.05;;
14268;SDS011;7218;51.480;7.006;2023-04-24T03:55:32;14.45;;;8.63;;
14268;SDS011;7218;51.480;7.006;2023-04-24T03:58:00;13.00;;;7.90;;
14268;SDS011;7218;51.480;7.006;2023-04-24T04:00:27;15.65;;;7.72;;
14268;SDS011;7218;51.480;7.006;2023-04-24T04:02:53;11.02;;;8.30;;
14268;SDS011;7218;51.480;7.006;2023-04-24T04:05:20;13.32;;;7.88;;
14268;SDS011;7218;51.480;7.006;2023-04-24T04:07:46;9.65;;;7.82;;
14268;SDS011;7218;51.480;7.006;2023-04-24T04:10:13;12.13;;;8.57;;
14268;SDS011;7218;51.480;7.006;2023-04-24T04:12:39;13.63;;;8.23;;
14268;SDS011;7218;51.480;7.006;2023-04-24T04:15:07;11.13;;;8.02;;
14268;SDS011;7218;51.480;7.006;2023-04-24T04:17:34;12.23;;;8.65;;
14268;SDS011;7218;51.480;7.006;2023-04-24T04:20:03;10.05;;;7.22;;
14268;SDS011;7218;51.480;7.006;2023-04-24T04:22:32;10.77;;;7.53;;
14268;SDS011;7218;51.480;7.006;2023-04-24T04:24:59;11.88;;;7.50;;
14268;SDS011;7218;51.480;7.006;2023-04-24T04:27:25;15.32;;;7.80;;
14268;SDS011;7218;51.480;7.006;2023-04-24T04:29:53;13.50;;;7.90;;
14268;SDS011;7218;51.480;7.006;2023-04-24T04:32:22;13.55;;;8.15;;
14268;SDS011;7218;51.480;7.006;2023-04-24T04:34:49;14.65;;;7.88;;
14268;SDS011;7218;51.480;7.006;2023-04-24T04:37:18;12.32;;;7.80;;
14268;SDS011;7218;51.480;7.006;2023-04-24T04:39:44;12.30;;;7.63;;
14268;SDS011;7218;51.480;7.006;2023-04-24T04:42:11;12.02;;;7.22;;
14268;SDS011;7218;51.480;7.006;2023-04-24T04:44:38;10.32;;;7.78;;
14268;SDS011;7218;51.480;7.006;2023-04-24T04:47:05;11.80;;;7.70;;
14268;SDS011;7218;51.480;7.006;2023-04-24T04:49:32;11.20;;;8.00;;
14268;SDS011;7218;51.480;7.006;2023-04-24T04:51:59;9.40;;;7.68;;
14268;SDS011;7218;51.480;7.006;2023-04-24T04:54:26;12.75;;;7.78;;
14268;SDS011;7218;51.480;7.006;2023-04-24T04:56:52;11.30;;;7.85;;
14268;SDS011;7218;51.480;7.006;2023-04-24T04:59:19;12.18;;;7.32;;
14268;SDS011;7218;51.480;7.006;2023-04-24T05:01:45;11.48;;;8.32;;
14268;SDS011;7218;51.480;7.006;2023-04-24T05:04:12;10.57;;;7.40;;
14268;SDS011;7218;51.480;7.006;2023-04-24T05:06:40;11.15;;;7.40;;
14268;SDS011;7218;51.480;7.006;2023-04-24T05:09:06;12.15;;;7.10;;
14268;SDS011;7218;51.480;7.006;2023-04-24T05:11:33;9.35;;;6.47;;
14268;SDS011;7218;51.480;7.006;2023-04-24T05:13:59;8.45;;;6.43;;
14268;SDS011;7218;51.480;7.006;2023-04-24T05:16:25;10.88;;;6.82;;
14268;SDS011;7218;51.480;7.006;2023-04-24T05:18:52;9.10;;;6.65;;
14268;SDS011;7218;51.480;7.006;2023-04-24T05:21:19;10.95;;;6.45;;
14268;SDS011;7218;51.480;7.006;2023-04-24T05:23:46;9.20;;;6.65;;
14268;SDS011;7218;51.480;7.006;2023-04-24T05:26:13;9.88;;;6.72;;
14268;SDS011;7218;51.480;7.006;2023-04-24T05:28:40;9.48;;;6.75;;
14268;SDS011;7218;51.480;7.006;2023-04-24T05:31:06;11.77;;;6.85;;
14268;SDS011;7218;51.480;7.006;2023-04-24T05:33:33;9.57;;;6.82;;
14268;SDS011;7218;51.480;7.006;2023-04-24T05:35:59;9.35;;;6.88;;
14268;SDS011;7218;51.480;7.006;2023-04-24T05:38:26;10.35;;;7.68;;
14268;SDS011;7218;51.480;7.006;2023-04-24T05:40:54;10.63;;;7.30;;
14268;SDS011;7218;51.480;7.006;2023-04-24T05:43:20;11.25;;;8.23;;
14268;SDS011;7218;51.480;7.006;2023-04-24T05:45:46;12.15;;;8.15;;
14268;SDS011;7218;51.480;7.006;2023-04-24T05:48:13;12.75;;;8.10;;
14268;SDS011;7218;51.480;7.006;2023-04-24T05:50:40;9.95;;;7.40;;
14268;SDS011;7218;51.480;7.006;2023-04-24T05:53:06;10.50;;;8.50;;
14268;SDS011;7218;51.480;7.006;2023-04-24T05:55:32;12.13;;;8.27;;
14268;SDS011;7218;51.480;7.006;2023-04-24T05:58:00;12.82;;;8.95;;
14268;SDS011;7218;51.480;7.006;2023-04-24T06:00:27;12.13;;;8.35;;
14268;SDS011;7218;51.480;7.006;2023-04-24T06:02:54;11.25;;;8.32;;
14268;SDS011;7218;51.480;7.006;2023-04-24T06:05:21;9.63;;;8.18;;
14268;SDS011;7218;51.480;7.006;2023-04-24T06:07:47;10.98;;;8.00;;
14268;SDS011;7218;51.480;7.006;2023-04-24T06:10:14;10.25;;;8.07;;
14268;SDS011;7218;51.480;7.006;2023-04-24T06:12:41;11.23;;;7.85;;
14268;SDS011;7218;51.480;7.006;2023-04-24T06:15:09;15.02;;;7.75;;
14268;SDS011;7218;51.480;7.006;2023-04-24T06:17:36;9.50;;;7.45;;
14268;SDS011;7218;51.480;7.006;2023-04-24T06:20:03;8.65;;;5.50;;
14268;SDS011;7218;51.480;7.006;2023-04-24T06:22:31;10.00;;;6.85;;
14268;SDS011;7218;51.480;7.006;2023-04-24T06:24:57;10.32;;;7.22;;
14268;SDS011;7218;51.480;7.006;2023-04-24T06:27:25;7.22;;;5.55;;
14268;SDS011;7218;51.480;7.006;2023-04-24T06:29:51;7.03;;;6.05;;
14268;SDS011;7218;51.480;7.006;2023-04-24T06:32:21;9.13;;;6.57;;
14268;SDS011;7218;51.480;7.006;2023-04-24T06:34:48;9.50;;;6.63;;
14268;SDS011;7218;51.480;7.006;2023-04-24T06:37:14;10.70;;;7.10;;
14268;SDS011;7218;51.480;7.006;2023-04-24T06:39:41;7.85;;;6.22;;
14268;SDS011;7218;51.480;7.006;2023-04-24T06:42:08;8.27;;;6.53;;
14268;SDS011;7218;51.480;7.006;2023-04-24T06:44:47;7.70;;;5.88;;
14268;SDS011;7218;51.480;7.006;2023-04-24T06:47:13;7.32;;;6.15;;
14268;SDS011;7218;51.480;7.006;2023-04-24T06:49:41;8.73;;;6.28;;
14268;SDS011;7218;51.480;7.006;2023-04-24T06:52:08;9.00;;;6.57;;
14268;SDS011;7218;51.480;7.006;2023-04-24T06:54:34;6.80;;;5.70;;
14268;SDS011;7218;51.480;7.006;2023-04-24T06:57:01;7.65;;;6.10;;
14268;SDS011;7218;51.480;7.006;2023-04-24T06:59:28;8.38;;;5.63;;
14268;SDS011;7218;51.480;7.006;2023-04-24T07:01:55;6.90;;;5.75;;
14268;SDS011;7218;51.480;7.006;2023-04-24T07:04:22;9.60;;;6.55;;
14268;SDS011;7218;51.480;7.006;2023-04-24T07:06:51;7.60;;;5.20;;
14268;SDS011;7218;51.480;7.006;2023-04-24T07:09:19;7.25;;;5.50;;
14268;SDS011;7218;51.480;7.006;2023-04-24T07:11:47;8.27;;;5.03;;
14268;SDS011;7218;51.480;7.006;2023-04-24T07:14:13;5.88;;;4.53;;
14268;SDS011;7218;51.480;7.006;2023-04-24T07:16:40;4.40;;;3.97;;
14268;SDS011;7218;51.480;7.006;2023-04-24T07:19:06;5.90;;;3.97;;
14268;SDS011;7218;51.480;7.006;2023-04-24T07:21:33;4.70;;;3.78;;
14268;SDS011;7218;51.480;7.006;2023-04-24T07:24:01;5.68;;;4.50;;
14268;SDS011;7218;51.480;7.006;2023-04-24T07:26:28;4.35;;;3.65;;
14268;SDS011;7218;51.480;7.006;2023-04-24T07:28:55;6.03;;;4.05;;
14268;SDS011;7218;51.480;7.006;2023-04-24T07:31:22;7.07;;;4.40;;
14268;SDS011;7218;51.480;7.006;2023-04-24T07:33:48;4.20;;;3.38;;
14268;SDS011;7218;51.480;7.006;2023-04-24T07:36:15;4.78;;;3.40;;
14268;SDS011;7218;51.480;7.006;2023-04-24T07:38:44;4.18;;;3.40;;
14268;SDS011;7218;51.480;7.006;2023-04-24T07:41:12;4.18;;;3.42;;
14268;SDS011;7218;51.480;7.006;2023-04-24T07:43:39;3.95;;;3.13;;
14268;SDS011;7218;51.480;7.006;2023-04-24T07:46:05;3.13;;;2.60;;
14268;SDS011;7218;51.480;7.006;2023-04-24T07:48:32;2.47;;;2.28;;
14268;SDS011;7218;51.480;7.006;2023-04-24T07:50:59;3.78;;;2.47;;
14268;SDS011;7218;51.480;7.006;2023-04-24T07:53:25;3.38;;;2.30;;
14268;SDS011;7218;51.480;7.006;2023-04-24T07:55:52;1.80;;;1.70;;
14268;SDS011;7218;51.480;7.006;2023-04-24T07:58:32;2.25;;;1.80;;
14268;SDS011;7218;51.480;7.006;2023-04-24T08:01:02;1.95;;;1.38;;
14268;SDS011;7218;51.480;7.006;2023-04-24T08:03:29;1.30;;;1.13;;
14268;SDS011;7218;51.480;7.006;2023-04-24T08:05:59;2.47;;;0.88;;
14268;SDS011;7218;51.480;7.006;2023-04-24T08:08:25;1.17;;;1.00;;
14268;SDS011;7218;51.480;7.006;2023-04-24T08:10:52;0.95;;;0.95;;
14268;SDS011;7218;51.480;7.006;2023-04-24T08:13:19;1.55;;;0.90;;
14268;SDS011;7218;51.480;7.006;2023-04-24T08:15:47;1.00;;;1.00;;
14268;SDS011;7218;51.480;7.006;2023-04-24T08:18:14;0.82;;;0.82;;
14268;SDS011;7218;51.480;7.006;2023-04-24T08:20:40;1.08;;;1.00;;
14268;SDS011;7218;51.480;7.006;2023-04-24T08:23:07;1.42;;;1.00;;
14268;SDS011;7218;51.480;7.006;2023-04-24T08:25:34;1.25;;;1.00;;
14268;SDS011;7218;51.480;7.006;2023-04-24T08:28:01;1.50;;;1.25;;
14268;SDS011;7218;51.480;7.006;2023-04-24T08:30:28;2.60;;;1.52;;
14268;SDS011;7218;51.480;7.006;2023-04-24T08:32:56;1.40;;;1.25;;
14268;SDS011;7218;51.480;7.006;2023-04-24T08:35:23;1.38;;;1.27;;
14268;SDS011;7218;51.480;7.006;2023-04-24T08:37:50;1.17;;;1.08;;
14268;SDS011;7218;51.480;7.006;2023-04-24T08:40:16;1.40;;;1.30;;
14268;SDS011;7218;51.480;7.006;2023-04-24T08:42:43;2.40;;;1.52;;
14268;SDS011;7218;51.480;7.006;2023-04-24T08:45:11;2.05;;;1.80;;
14268;SDS011;7218;51.480;7.006;2023-04-24T08:50:11;3.92;;;2.05;;
14268;SDS011;7218;51.480;7.006;2023-04-24T08:52:38;5.93;;;2.58;;
14268;SDS011;7218;51.480;7.006;2023-04-24T08:55:05;2.63;;;2.00;;
14268;SDS011;7218;51.480;7.006;2023-04-24T08:57:32;2.45;;;2.25;;
14268;SDS011;7218;51.480;7.006;2023-04-24T08:59:58;2.90;;;2.55;;
14268;SDS011;7218;51.480;7.006;2023-04-24T09:02:26;2.75;;;2.20;;
14268;SDS011;7218;51.480;7.006;2023-04-24T09:04:53;4.45;;;2.00;;
14268;SDS011;7218;51.480;7.006;2023-04-24T09:07:21;5.38;;;4.32;;
14268;SDS011;7218;51.480;7.006;2023-04-24T09:09:50;4.25;;;2.70;;
14268;SDS011;7218;51.480;7.006;2023-04-24T09:12:17;3.65;;;2.28;;
14268;SDS011;7218;51.480;7.006;2023-04-24T09:14:45;2.58;;;2.30;;
14268;SDS011;7218;51.480;7.006;2023-04-24T09:17:11;2.60;;;1.77;;
14268;SDS011;7218;51.480;7.006;2023-04-24T09:19:38;3.38;;;2.00;;
14268;SDS011;7218;51.480;7.006;2023-04-24T09:22:05;2.15;;;1.55;;
14268;SDS011;7218;51.480;7.006;2023-04-24T09:24:33;1.90;;;1.45;;
14268;SDS011;7218;51.480;7.006;2023-04-24T09:27:00;2.00;;;1.70;;
14268;SDS011;7218;51.480;7.006;2023-04-24T09:29:27;3.17;;;2.28;;
14268;SDS011;7218;51.480;7.006;2023-04-24T09:31:54;4.55;;;3.08;;
14268;SDS011;7218;51.480;7.006;2023-04-24T09:34:21;5.05;;;3.92;;
14268;SDS011;7218;51.480;7.006;2023-04-24T09:36:49;6.13;;;4.60;;
14268;SDS011;7218;51.480;7.006;2023-04-24T09:39:16;7.10;;;4.57;;
14268;SDS011;7218;51.480;7.006;2023-04-24T09:41:46;6.25;;;4.50;;
14268;SDS011;7218;51.480;7.006;2023-04-24T09:44:14;6.07;;;4.40;;
14268;SDS011;7218;51.480;7.006;2023-04-24T09:46:41;5.80;;;4.43;;
14268;SDS011;7218;51.480;7.006;2023-04-24T09:49:08;6.65;;;4.70;;
14268;SDS011;7218;51.480;7.006;2023-04-24T09:51:37;6.65;;;4.68;;
14268;SDS011;7218;51.480;7.006;2023-04-24T09:54:04;5.60;;;4.53;;
14268;SDS011;7218;51.480;7.006;2023-04-24T09:56:36;4.80;;;3.78;;
14268;SDS011;7218;51.480;7.006;2023-04-24T09:59:10;5.82;;;4.28;;
14268;SDS011;7218;51.480;7.006;2023-04-24T10:01:36;7.63;;;4.35;;
14268;SDS011;7218;51.480;7.006;2023-04-24T10:04:06;6.53;;;4.10;;
14268;SDS011;7218;51.480;7.006;2023-04-24T10:06:41;5.70;;;4.38;;
14268;SDS011;7218;51.480;7.006;2023-04-24T10:09:09;5.90;;;4.30;;
14268;SDS011;7218;51.480;7.006;2023-04-24T10:11:37;7.80;;;4.70;;
14268;SDS011;7218;51.480;7.006;2023-04-24T10:14:03;7.50;;;5.18;;
14268;SDS011;7218;51.480;7.006;2023-04-24T10:16:32;10.52;;;5.32;;
14268;SDS011;7218;51.480;7.006;2023-04-24T10:18:58;9.52;;;5.70;;
14268;SDS011;7218;51.480;7.006;2023-04-24T10:21:25;7.15;;;5.63;;
14268;SDS011;7218;51.480;7.006;2023-04-24T10:23:52;7.70;;;5.30;;
14268;SDS011;7218;51.480;7.006;2023-04-24T10:26:20;9.50;;;5.85;;
14268;SDS011;7218;51.480;7.006;2023-04-24T10:28:48;6.03;;;5.15;;
14268;SDS011;7218;51.480;7.006;2023-04-24T10:31:16;5.90;;;5.03;;
14268;SDS011;7218;51.480;7.006;2023-04-24T10:33:45;8.82;;;5.18;;
14268;SDS011;7218;51.480;7.006;2023-04-24T10:36:13;8.25;;;4.72;;
14268;SDS011;7218;51.480;7.006;2023-04-24T10:38:41;7.57;;;4.95;;
14268;SDS011;7218;51.480;7.006;2023-04-24T10:41:11;10.25;;;5.10;;
14268;SDS011;7218;51.480;7.006;2023-04-24T10:43:41;9.80;;;5.05;;
14268;SDS011;7218;51.480;7.006;2023-04-24T10:46:08;12.02;;;5.40;;
14268;SDS011;7218;51.480;7.006;2023-04-24T10:48:36;11.05;;;5.43;;
14268;SDS011;7218;51.480;7.006;2023-04-24T10:51:12;11.82;;;5.78;;
14268;SDS011;7218;51.480;7.006;2023-04-24T10:53:39;10.50;;;4.95;;
14268;SDS011;7218;51.480;7.006;2023-04-24T10:56:07;12.43;;;5.63;;
14268;SDS011;7218;51.480;7.006;2023-04-24T10:58:39;10.63;;;5.40;;
14268;SDS011;7218;51.480;7.006;2023-04-24T11:01:11;14.75;;;5.25;;
14268;SDS011;7218;51.480;7.006;2023-04-24T11:03:50;13.65;;;5.40;;
14268;SDS011;7218;51.480;7.006;2023-04-24T11:06:21;11.85;;;4.95;;
14268;SDS011;7218;51.480;7.006;2023-04-24T11:08:58;12.43;;;4.97;;
14268;SDS011;7218;51.480;7.006;2023-04-24T11:11:29;10.40;;;5.00;;
14268;SDS011;7218;51.480;7.006;2023-04-24T11:14:03;12.85;;;5.40;;
14268;SDS011;7218;51.480;7.006;2023-04-24T11:16:32;12.60;;;4.50;;
14268;SDS011;7218;51.480;7.006;2023-04-24T11:19:00;14.20;;;4.97;;
14268;SDS011;7218;51.480;7.006;2023-04-24T11:21:32;13.82;;;5.45;;
14268;SDS011;7218;51.480;7.006;2023-04-24T11:24:21;14.27;;;5.68;;
14268;SDS011;7218;51.480;7.006;2023-04-24T11:26:50;14.77;;;5.18;;
14268;SDS011;7218;51.480;7.006;2023-04-24T11:29:17;8.55;;;4.75;;
14268;SDS011;7218;51.480;7.006;2023-04-24T11:31:45;11.48;;;4.43;;
14268;SDS011;7218;51.480;7.006;2023-04-24T11:34:16;10.05;;;4.22;;
14268;SDS011;7218;51.480;7.006;2023-04-24T11:36:45;10.25;;;4.50;;
14268;SDS011;7218;51.480;7.006;2023-04-24T11:39:12;10.40;;;4.35;;
14268;SDS011;7218;51.480;7.006;2023-04-24T11:41:39;10.60;;;4.80;;
14268;SDS011;7218;51.480;7.006;2023-04-24T11:44:07;10.00;;;5.10;;
14268;SDS011;7218;51.480;7.006;2023-04-24T11:46:34;13.27;;;6.00;;
14268;SDS011;7218;51.480;7.006;2023-04-24T11:49:02;16.00;;;5.57;;
14268;SDS011;7218;51.480;7.006;2023-04-24T11:51:31;12.20;;;5.18;;
14268;SDS011;7218;51.480;7.006;2023-04-24T11:53:59;12.10;;;5.30;;
14268;SDS011;7218;51.480;7.006;2023-04-24T11:56:26;11.82;;;5.45;;
14268;SDS011;7218;51.480;7.006;2023-04-24T11:58:52;8.70;;;4.20;;
14268;SDS011;7218;51.480;7.006;2023-04-24T12:01:19;10.02;;;3.75;;
14268;SDS011;7218;51.480;7.006;2023-04-24T12:03:47;7.93;;;3.40;;
14268;SDS011;7218;51.480;7.006;2023-04-24T12:06:16;12.23;;;3.70;;
14268;SDS011;7218;51.480;7.006;2023-04-24T12:08:45;9.50;;;3.50;;
14268;SDS011;7218;51.480;7.006;2023-04-24T12:11:14;10.00;;;3.30;;
14268;SDS011;7218;51.480;7.006;2023-04-24T12:13:43;7.15;;;3.08;;
14268;SDS011;7218;51.480;7.006;2023-04-24T12:16:10;7.53;;;3.08;;
14268;SDS011;7218;51.480;7.006;2023-04-24T12:18:41;8.82;;;3.53;;
14268;SDS011;7218;51.480;7.006;2023-04-24T12:21:14;9.05;;;3.35;;
14268;SDS011;7218;51.480;7.006;2023-04-24T12:23:42;5.15;;;3.15;;
14268;SDS011;7218;51.480;7.006;2023-04-24T12:26:08;10.05;;;3.20;;
14268;SDS011;7218;51.480;7.006;2023-04-24T12:28:37;8.57;;;3.28;;
14268;SDS011;7218;51.480;7.006;2023-04-24T12:31:04;8.55;;;4.03;;
14268;SDS011;7218;51.480;7.006;2023-04-24T12:33:32;8.85;;;3.40;;
14268;SDS011;7218;51.480;7.006;2023-04-24T12:36:00;5.80;;;3.38;;
14268;SDS011;7218;51.480;7.006;2023-04-24T12:38:27;6.15;;;3.35;;
14268;SDS011;7218;51.480;7.006;2023-04-24T12:41:01;7.88;;;3.50;;
14268;SDS011;7218;51.480;7.006;2023-04-24T12:43:29;5.88;;;3.45;;
14268;SDS011;7218;51.480;7.006;2023-04-24T12:45:57;5.90;;;3.30;;
14268;SDS011;7218;51.480;7.006;2023-04-24T12:48:24;7.47;;;3.50;;
14268;SDS011;7218;51.480;7.006;2023-04-24T12:50:50;4.70;;;2.80;;
14268;SDS011;7218;51.480;7.006;2023-04-24T12:53:17;5.50;;;3.10;;
14268;SDS011;7218;51.480;7.006;2023-04-24T12:55:43;6.25;;;3.50;;
14268;SDS011;7218;51.480;7.006;2023-04-24T12:58:11;4.75;;;2.55;;
14268;SDS011;7218;51.480;7.006;2023-04-24T13:00:38;8.15;;;4.28;;
14268;SDS011;7218;51.480;7.006;2023-04-24T13:03:06;5.82;;;2.88;;
14268;SDS011;7218;51.480;7.006;2023-04-24T13:05:32;4.57;;;2.63;;
14268;SDS011;7218;51.480;7.006;2023-04-24T13:07:59;7.20;;;3.90;;
14268;SDS011;7218;51.480;7.006;2023-04-24T13:10:26;3.75;;;2.78;;
14268;SDS011;7218;51.480;7.006;2023-04-24T13:12:53;5.57;;;2.38;;
14268;SDS011;7218;51.480;7.006;2023-04-24T13:15:20;6.75;;;2.20;;
14268;SDS011;7218;51.480;7.006;2023-04-24T13:17:46;6.53;;;2.30;;
14268;SDS011;7218;51.480;7.006;2023-04-24T13:20:14;4.68;;;1.85;;
14268;SDS011;7218;51.480;7.006;2023-04-24T13:22:40;3.28;;;1.95;;
14268;SDS011;7218;51.480;7.006;2023-04-24T13:25:07;2.08;;;1.55;;
14268;SDS011;7218;51.480;7.006;2023-04-24T13:27:34;4.20;;;1.67;;
14268;SDS011;7218;51.480;7.006;2023-04-24T13:30:00;3.40;;;1.65;;
14268;SDS011;7218;51.480;7.006;2023-04-24T13:32:27;2.78;;;1.55;;
14268;SDS011;7218;51.480;7.006;2023-04-24T13:34:54;2.90;;;1.30;;
14268;SDS011;7218;51.480;7.006;2023-04-24T13:37:22;2.63;;;1.55;;
14268;SDS011;7218;51.480;7.006;2023-04-24T13:39:48;5.57;;;3.20;;
14268;SDS011;7218;51.480;7.006;2023-04-24T13:42:15;3.45;;;1.80;;
14268;SDS011;7218;51.480;7.006;2023-04-24T13:44:43;4.90;;;1.70;;
14268;SDS011;7218;51.480;7.006;2023-04-24T13:47:09;4.03;;;2.30;;
14268;SDS011;7218;51.480;7.006;2023-04-24T13:49:36;6.75;;;2.63;;
14268;SDS011;7218;51.480;7.006;2023-04-24T13:52:02;5.00;;;2.90;;
14268;SDS011;7218;51.480;7.006;2023-04-24T13:54:30;3.90;;;2.53;;
14268;SDS011;7218;51.480;7.006;2023-04-24T13:56:57;5.20;;;2.90;;
14268;SDS011;7218;51.480;7.006;2023-04-24T13:59:23;4.85;;;1.73;;
14268;SDS011;7218;51.480;7.006;2023-04-24T14:01:50;5.43;;;1.25;;
14268;SDS011;7218;51.480;7.006;2023-04-24T14:04:16;5.10;;;1.45;;
14268;SDS011;7218;51.480;7.006;2023-04-24T14:06:43;1.83;;;1.30;;
14268;SDS011;7218;51.480;7.006;2023-04-24T14:09:10;5.78;;;2.00;;
14268;SDS011;7218;51.480;7.006;2023-04-24T14:11:37;3.10;;;1.50;;
14268;SDS011;7218;51.480;7.006;2023-04-24T14:14:04;4.45;;;2.60;;
14268;SDS011;7218;51.480;7.006;2023-04-24T14:16:31;5.15;;;2.55;;
14268;SDS011;7218;51.480;7.006;2023-04-24T14:18:58;3.42;;;1.95;;
14268;SDS011;7218;51.480;7.006;2023-04-24T14:21:24;5.18;;;3.10;;
14268;SDS011;7218;51.480;7.006;2023-04-24T14:23:50;6.47;;;2.00;;
14268;SDS011;7218;51.480;7.006;2023-04-24T14:26:17;4.07;;;1.70;;
14268;SDS011;7218;51.480;7.006;2023-04-24T14:28:45;3.15;;;1.70;;
14268;SDS011;7218;51.480;7.006;2023-04-24T14:31:11;3.88;;;1.33;;
14268;SDS011;7218;51.480;7.006;2023-04-24T14:33:38;4.55;;;1.70;;
14268;SDS011;7218;51.480;7.006;2023-04-24T14:36:04;2.80;;;1.48;;
14268;SDS011;7218;51.480;7.006;2023-04-24T14:38:31;3.05;;;1.60;;
14268;SDS011;7218;51.480;7.006;2023-04-24T14:40:58;2.25;;;1.30;;
14268;SDS011;7218;51.480;7.006;2023-04-24T14:43:24;3.00;;;1.80;;
14268;SDS011;7218;51.480;7.006;2023-04-24T14:45:52;2.80;;;1.73;;
14268;SDS011;7218;51.480;7.006;2023-04-24T14:48:18;4.55;;;1.63;;
14268;SDS011;7218;51.480;7.006;2023-04-24T14:50:45;4.50;;;2.00;;
14268;SDS011;7218;51.480;7.006;2023-04-24T14:53:11;4.68;;;2.97;;
14268;SDS011;7218;51.480;7.006;2023-04-24T14:55:38;5.22;;;3.53;;
14268;SDS011;7218;51.480;7.006;2023-04-24T14:58:05;4.35;;;2.83;;
14268;SDS011;7218;51.480;7.006;2023-04-24T15:00:31;3.25;;;2.03;;